Latest Weather Observations for Point Wilson

IDV60801

Issued at 3:05 am EDT Tuesday 25 November 2014 (issued every 30 minutes, with the page automatically refreshed every 10 minutes)

About weather observations | Map of weather stations | Latest weather observations for VIC | Other Formats
Station Details ID: 087166 Name: POINT WILSON Lat: -38.10 Lon: 144.54 Height: 18.0 m
Data from the previous 72 hours. | See also: Recent months at Point Wilson
Date/Time
EDT
Temp
°C
App
Temp
°C
Dew
Point
Rel
Hum
%
Delta-T
°C
Wind Press
QNH
hPa
Press
MSL
hPa
Rain
since 9 am
mm
Dir
 
Spd
km/h
Gust
km/h
Spd
kts
Gust
kts
25/03:00am - - - - - W 41 50 22 27 - - -
25/02:30am - - - - - W 43 50 23 27 - - -
25/02:00am - - - - - WNW 28 35 15 19 - - -
25/01:30am - - - - - WNW 32 43 17 23 - - -
25/01:00am - - - - - W 35 41 19 22 - - -
25/12:30am - - - - - W 35 46 19 25 - - -
25/12:00am - - - - - W 35 43 19 23 - - -
 
Date/Time
EDT
Temp
°C
App
Temp
°C
Dew
Point
Rel
Hum
%
Delta-T
°C
Wind Press
QNH
hPa
Press
MSL
hPa
Rain
since 9 am
mm
Dir
 
Spd
km/h
Gust
km/h
Spd
kts
Gust
kts
24/11:30pm - - - - - W 33 41 18 22 - - -
24/11:00pm - - - - - W 32 39 17 21 - - -
24/10:30pm - - - - - WSW 33 43 18 23 - - -
24/10:00pm - - - - - WSW 32 39 17 21 - - -
24/09:30pm - - - - - WSW 30 37 16 20 - - -
24/09:00pm - - - - - WSW 28 33 15 18 - - -
24/08:30pm - - - - - WSW 39 46 21 25 - - -
24/08:00pm - - - - - WSW 35 41 19 22 - - -
24/07:30pm - - - - - WSW 33 39 18 21 - - -
24/07:00pm - - - - - WSW 39 54 21 29 - - -
24/06:56pm - - - - - WSW 35 54 19 29 - - -
24/06:30pm - - - - - WSW 43 50 23 27 - - -
24/06:07pm - - - - - WSW 37 50 20 27 - - -
24/06:00pm - - - - - SSW 35 41 19 22 - - -
24/05:30pm - - - - - SSW 30 39 16 21 - - -
24/05:00pm - - - - - WSW 19 24 10 13 - - -
24/04:30pm - - - - - WSW 22 28 12 15 - - -
24/04:00pm - - - - - WSW 32 37 17 20 - - -
24/03:30pm - - - - - WSW 35 46 19 25 - - -
24/03:00pm - - - - - WSW 20 43 11 23 - - -
24/02:30pm - - - - - WNW 4 9 2 5 - - -
24/02:00pm - - - - - N 13 17 7 9 - - -
24/01:30pm - - - - - WNW 9 15 5 8 - - -
24/01:00pm - - - - - NNE 22 24 12 13 - - -
24/12:30pm - - - - - ENE 24 32 13 17 - - -
24/12:00pm - - - - - ENE 19 28 10 15 - - -
24/11:30am - - - - - N 13 20 7 11 - - -
24/11:00am - - - - - E 24 28 13 15 - - -
24/10:30am - - - - - NE 15 19 8 10 - - -
24/10:00am - - - - - NNE 7 15 4 8 - - -
24/09:30am - - - - - SE 7 11 4 6 - - -
24/09:00am - - - - - S 19 28 10 15 - - -
24/08:30am - - - - - SW 26 30 14 16 - - -
24/08:00am - - - - - WSW 37 50 20 27 - - -
24/07:56am - - - - - WSW 44 50 24 27 - - -
24/07:30am - - - - - ENE 15 17 8 9 - - -
24/07:00am - - - - - NE 9 13 5 7 - - -
24/06:30am - - - - - N 7 9 4 5 - - -
24/06:00am - - - - - N 7 9 4 5 - - -
24/05:30am - - - - - NNW 11 13 6 7 - - -
24/05:00am - - - - - ENE 9 11 5 6 - - -
24/04:30am - - - - - E 9 13 5 7 - - -
24/04:00am - - - - - SE 9 11 5 6 - - -
24/03:30am - - - - - ENE 15 17 8 9 - - -
24/03:00am - - - - - ENE 13 19 7 10 - - -
24/02:30am - - - - - E 11 15 6 8 - - -
24/02:00am - - - - - E 11 13 6 7 - - -
24/01:30am - - - - - ESE 11 13 6 7 - - -
24/01:00am - - - - - E 15 19 8 10 - - -
24/12:30am - - - - - E 15 24 8 13 - - -
24/12:00am - - - - - E 15 19 8 10 - - -
 
Date/Time
EDT
Temp
°C
App
Temp
°C
Dew
Point
Rel
Hum
%
Delta-T
°C
Wind Press
QNH
hPa
Press
MSL
hPa
Rain
since 9 am
mm
Dir
 
Spd
km/h
Gust
km/h
Spd
kts
Gust
kts
23/11:30pm - - - - - E 15 17 8 9 - - -
23/11:00pm - - - - - ESE 17 19 9 10 - - -
23/10:30pm - - - - - E 13 15 7 8 - - -
23/10:00pm - - - - - SE 13 15 7 8 - - -
23/09:30pm - - - - - E 15 19 8 10 - - -
23/09:00pm - - - - - ESE 17 20 9 11 - - -
23/08:30pm - - - - - SE 17 22 9 12 - - -
23/08:00pm - - - - - SE 15 17 8 9 - - -
23/07:30pm - - - - - SSE 20 24 11 13 - - -
23/07:00pm - - - - - S 26 32 14 17 - - -
23/06:30pm - - - - - S 26 32 14 17 - - -
23/06:00pm - - - - - S 30 35 16 19 - - -
23/05:30pm - - - - - S 32 37 17 20 - - -
23/05:00pm - - - - - S 32 35 17 19 - - -
23/04:30pm - - - - - S 32 35 17 19 - - -
23/04:00pm - - - - - S 30 35 16 19 - - -
23/03:30pm - - - - - S 28 30 15 16 - - -
23/03:00pm - - - - - S 28 32 15 17 - - -
23/02:30pm - - - - - S 20 24 11 13 - - -
23/02:00pm - - - - - E 19 24 10 13 - - -
23/01:30pm - - - - - E 26 30 14 16 - - -
23/01:00pm - - - - - E 24 28 13 15 - - -
23/12:30pm - - - - - E 19 24 10 13 - - -
23/12:00pm - - - - - E 11 15 6 8 - - -
23/11:30am - - - - - E 6 7 3 4 - - -
23/11:00am - - - - - CALM 0 0 0 0 - - -
23/10:30am - - - - - W 4 7 2 4 - - -
23/10:00am - - - - - WSW 9 11 5 6 - - -
23/09:30am - - - - - WSW 9 11 5 6 - - -
23/09:00am - - - - - WSW 7 9 4 5 - - -
23/08:30am - - - - - WSW 11 15 6 8 - - -
23/08:00am - - - - - WSW 15 19 8 10 - - -
23/07:30am - - - - - WSW 19 20 10 11 - - -
23/07:00am - - - - - W 13 15 7 8 - - -
23/06:30am - - - - - WNW 13 15 7 8 - - -
23/06:00am - - - - - NW 13 17 7 9 - - -
23/05:30am - - - - - NW 13 17 7 9 - - -
23/05:00am - - - - - W 17 20 9 11 - - -
23/04:30am - - - - - W 19 24 10 13 - - -
23/04:00am - - - - - W 22 26 12 14 - - -
23/03:30am - - - - - WSW 22 26 12 14 - - -
23/03:00am - - - - - W 22 24 12 13 - - -
23/02:30am - - - - - WSW 24 28 13 15 - - -
23/02:00am - - - - - WSW 24 28 13 15 - - -
23/01:30am - - - - - W 26 32 14 17 - - -
23/01:00am - - - - - W 20 28 11 15 - - -
23/12:30am - - - - - WSW 24 28 13 15 - - -
23/12:00am - - - - - W 24 28 13 15 - - -
 
Date/Time
EDT
Temp
°C
App
Temp
°C
Dew
Point
Rel
Hum
%
Delta-T
°C
Wind Press
QNH
hPa
Press
MSL
hPa
Rain
since 9 am
mm
Dir
 
Spd
km/h
Gust
km/h
Spd
kts
Gust
kts
22/11:30pm - - - - - WNW 19 22 10 12 - - -
22/11:00pm - - - - - S 4 7 2 4 - - -
22/10:30pm - - - - - SSW 13 15 7 8 - - -
22/10:00pm - - - - - SSW 15 17 8 9 - - -
22/09:30pm - - - - - SSW 28 30 15 16 - - -
22/09:00pm - - - - - S 32 37 17 20 - - -
22/08:30pm - - - - - SSW 28 33 15 18 - - -
22/08:19pm - - - - - W 32 44 17 24 - - -
22/08:15pm - - - - - WNW 41 44 22 24 - - -
22/08:00pm - - - - - NNW 32 37 17 20 - - -
22/07:30pm - - - - - NNW 37 50 20 27 - - -
22/07:00pm - - - - - NNW 46 59 25 32 - - -
22/06:30pm - - - - - NNW 50 69 27 37 - - -
22/06:24pm - - - - - NNW 46 67 25 36 - - -
22/06:00pm - - - - - NNW 46 56 25 30 - - -
22/05:30pm - - - - - NNW 44 65 24 35 - - -
22/05:00pm - - - - - NNW 33 43 18 23 - - -
22/04:34pm - - - - - NNW 43 54 23 29 - - -
22/04:30pm - - - - - N 32 41 17 22 - - -
22/04:00pm - - - - - N 28 33 15 18 - - -
22/03:30pm - - - - - N 37 48 20 26 - - -
22/03:00pm - - - - - N 35 46 19 25 - - -
22/02:30pm - - - - - NNE 22 30 12 16 - - -
22/02:00pm - - - - - NNE 20 24 11 13 - - -
22/01:30pm - - - - - N 32 39 17 21 - - -
22/01:00pm - - - - - NNE 26 32 14 17 - - -
22/12:30pm - - - - - NNE 35 39 19 21 - - -
22/12:00pm - - - - - N 35 46 19 25 - - -
22/11:53am - - - - - N 32 35 17 19 - - -
22/11:30am - - - - - NNE 11 17 6 9 - - -
22/11:00am - - - - - NNE 19 22 10 12 - - -
22/10:30am - - - - - NNE 22 28 12 15 - - -
22/10:00am - - - - - NNE 22 26 12 14 - - -
22/09:30am - - - - - NE 22 24 12 13 - - -
22/09:00am - - - - - N 13 17 7 9 - - -
22/08:30am - - - - - N 9 11 5 6 - - -
22/08:00am - - - - - N 11 13 6 7 - - -
22/07:30am - - - - - NNE 11 13 6 7 - - -
22/07:00am - - - - - N 2 7 1 4 - - -
22/06:30am - - - - - NW 6 9 3 5 - - -
22/06:00am - - - - - N 13 15 7 8 - - -
22/05:30am - - - - - N 17 19 9 10 - - -
22/05:00am - - - - - N 13 17 7 9 - - -
22/04:30am - - - - - N 9 11 5 6 - - -
22/04:00am - - - - - N 9 13 5 7 - - -
22/03:30am - - - - - N 11 13 6 7 - - -

Other Formats:

Comma delimited format used in spreadsheet applications
http://www.bom.gov.au/fwo/IDV60801/IDV60801.94847.axf

JavaScript Object Notation format (JSON) in row-major order
http://www.bom.gov.au/fwo/IDV60801/IDV60801.94847.json